Norris Observed Data For Previous 48 Hours

Caption
Day and Hour Reservoir Elevation (behind dam)* Tailwater Elevation (below dam)* Average Hourly Discharge*
5/23/2017 2 AM EDT 1,020.14 824.96 4,395
5/23/2017 3 AM EDT 1,020.14 824.99 4,393
5/23/2017 4 AM EDT 1,020.14 825.08 4,387
5/23/2017 5 AM EDT 1,020.13 825.05 4,400
5/23/2017 6 AM EDT 1,020.12 825.02 4,398
5/23/2017 7 AM EDT 1,020.12 825.07 4,390
5/23/2017 8 AM EDT 1,020.11 825.01 4,393
5/23/2017 9 AM EDT 1,020.11 825.02 4,397
5/23/2017 10 AM EDT 1,020.11 825.04 4,392
5/23/2017 11 AM EDT 1,020.10 825.07 4,387
5/23/2017 12 PM EDT 1,020.11 825.01 4,398
5/23/2017 1 PM EDT 1,020.11 825.01 4,395
5/23/2017 2 PM EDT 1,020.11 824.99 4,400
5/23/2017 3 PM EDT 1,020.10 825.03 4,393
5/23/2017 4 PM EDT 1,020.10 825.06 4,395
5/23/2017 5 PM EDT 1,020.10 825.04 4,396
5/23/2017 6 PM EDT 1,020.10 825.08 4,388
5/23/2017 7 PM EDT 1,020.09 825.00 4,401
5/23/2017 8 PM EDT 1,020.08 825.10 4,393
5/23/2017 9 PM EDT 1,020.08 825.09 4,394
5/23/2017 10 PM EDT 1,020.08 825.05 4,388
5/23/2017 11 PM EDT 1,020.06 825.01 4,373
5/24/2017 12 AM EDT 1,020.06 825.08 4,383
5/24/2017 1 AM EDT 1,020.06 825.01 4,383
5/24/2017 2 AM EDT 1,020.07 822.33 263
5/24/2017 3 AM EDT 1,020.07 821.86 20
5/24/2017 4 AM EDT 1,020.06 821.68 20
5/24/2017 5 AM EDT 1,020.07 821.54 20
5/24/2017 6 AM EDT 1,020.07 821.40 20
5/24/2017 7 AM EDT 1,020.07 821.26 20
5/24/2017 8 AM EDT 1,020.07 821.14 20
5/24/2017 9 AM EDT 1,020.08 821.02 20
5/24/2017 10 AM EDT 1,020.08 820.91 20
5/24/2017 11 AM EDT 1,020.08 820.86 20
5/24/2017 12 PM EDT 1,020.06 823.58 508
5/24/2017 1 PM EDT 1,020.07 824.86 4,411
5/24/2017 2 PM EDT 1,020.07 825.01 4,409
5/24/2017 3 PM EDT 1,020.07 825.06 4,411
5/24/2017 4 PM EDT 1,020.07 825.05 4,411
5/24/2017 5 PM EDT 1,020.07 825.05 4,411
5/24/2017 6 PM EDT 1,020.07 824.99 4,408
5/24/2017 7 PM EDT 1,020.07 825.04 4,415
5/24/2017 8 PM EDT 1,020.07 825.00 4,416
5/24/2017 9 PM EDT 1,020.07 825.03 4,417
5/24/2017 10 PM EDT 1,020.07 825.07 4,405
5/24/2017 11 PM EDT 1,020.07 825.01 4,400
5/25/2017 12 AM EDT 1,020.07 825.01 4,407
5/25/2017 1 AM EDT 1,020.07 825.06 4,411
5/25/2017 2 AM EDT 1,020.07 825.03 4,408
5/25/2017 3 AM EDT 1,020.07 824.94 4,408
5/25/2017 4 AM EDT 1,020.07 825.08 4,410
5/25/2017 5 AM EDT 1,020.07 825.03 4,411
5/25/2017 6 AM EDT 1,020.07 825.07 4,405
5/25/2017 7 AM EDT 1,020.07 822.32 270
5/25/2017 8 AM EDT 1,020.07 821.85 20

Elevations are in feet above sea level. Discharges are in cubic feet per second and are reported at the end of the hour.